createdAt,value
2019-02-22T00:00:41.036Z,50.47
2019-02-22T00:03:28.916Z,49.00
2019-02-22T00:06:17.127Z,51.90
2019-02-22T00:09:06.467Z,50.90
2019-02-22T00:11:54.947Z,50.90
2019-02-22T00:14:42.449Z,52.17
2019-02-22T00:17:30.268Z,51.57
2019-02-22T00:20:18.752Z,51.77
2019-02-22T00:23:07.347Z,50.73
2019-02-22T00:25:54.948Z,51.67
2019-02-22T00:28:43.245Z,49.30
2019-02-22T00:31:31.809Z,53.43
2019-02-22T00:34:20.520Z,53.77
2019-02-22T00:37:09.286Z,56.00
2019-02-22T00:39:57.360Z,52.80
2019-02-22T00:42:46.302Z,52.87
2019-02-22T00:45:34.325Z,55.23
2019-02-22T00:48:22.943Z,52.93
2019-02-22T00:51:11.198Z,53.37
2019-02-22T00:53:59.658Z,55.70
2019-02-22T00:56:47.179Z,54.87
2019-02-22T00:59:35.292Z,56.87
2019-02-22T01:02:23.644Z,54.97
2019-02-22T01:05:11.311Z,56.13
2019-02-22T01:07:59.526Z,55.27
2019-02-22T01:10:47.911Z,54.30
2019-02-22T01:13:36.149Z,54.97
2019-02-22T01:16:24.256Z,53.57
2019-02-22T01:19:11.835Z,54.47
2019-02-22T01:21:59.864Z,55.43
2019-02-22T01:24:47.800Z,57.47
2019-02-22T01:27:36.245Z,55.07
2019-02-22T01:30:24.607Z,56.70
2019-02-22T01:33:12.916Z,57.27
2019-02-22T01:36:01.252Z,54.00
2019-02-22T01:38:49.721Z,56.40
2019-02-22T01:41:38.176Z,57.10
2019-02-22T01:44:26.411Z,58.27
2019-02-22T01:47:14.981Z,56.23
2019-02-22T01:50:03.320Z,56.00
2019-02-22T01:52:51.532Z,53.40
2019-02-22T01:55:39.013Z,56.93
2019-02-22T01:58:26.708Z,54.53
2019-02-22T02:01:15.091Z,56.37
2019-02-22T02:04:03.293Z,54.47
2019-02-22T02:06:51.512Z,54.57
2019-02-22T02:09:40.164Z,53.57
2019-02-22T02:12:28.209Z,53.30
2019-02-22T02:15:16.548Z,54.93
2019-02-22T02:18:04.229Z,52.47
2019-02-22T02:20:52.149Z,52.70
2019-02-22T02:23:40.513Z,53.93
2019-02-22T02:26:28.620Z,56.87
2019-02-22T02:29:16.803Z,53.77
2019-02-22T02:32:05.258Z,54.00
2019-02-22T02:34:52.966Z,51.13
2019-02-22T02:37:40.503Z,54.77
2019-02-22T02:40:28.794Z,53.90
2019-02-22T02:43:17.004Z,54.77
2019-02-22T02:46:05.331Z,52.93
2019-02-22T02:48:53.688Z,54.43
2019-02-22T02:51:41.516Z,52.83
2019-02-22T02:54:29.740Z,53.73
2019-02-22T02:57:18.244Z,55.80
2019-02-22T03:00:08.275Z,50.50
2019-02-22T03:02:56.333Z,51.67
2019-02-22T03:06:07.872Z,55.47
2019-02-22T03:08:56.157Z,55.43
2019-02-22T03:11:44.467Z,57.60
2019-02-22T03:14:32.035Z,51.80
2019-02-22T03:17:20.371Z,55.57
2019-02-22T03:20:08.793Z,53.23
2019-02-22T03:22:56.641Z,51.13
2019-02-22T03:25:44.662Z,49.27
2019-02-22T03:28:33.074Z,50.70
2019-02-22T03:31:21.374Z,51.80
2019-02-22T03:34:09.953Z,51.20
2019-02-22T03:36:57.765Z,50.10
2019-02-22T03:39:45.683Z,50.17
2019-02-22T03:42:33.845Z,51.50
2019-02-22T03:45:22.315Z,51.83
2019-02-22T03:48:10.887Z,50.53
2019-02-22T03:50:58.896Z,50.17
2019-02-22T03:53:57.532Z,50.50
2019-02-22T03:56:45.755Z,49.37
2019-02-22T03:59:33.620Z,50.60
2019-02-22T04:02:22.158Z,49.70
2019-02-22T04:05:11.101Z,48.57
2019-02-22T04:07:59.660Z,46.40
2019-02-22T04:10:48.144Z,46.33
2019-02-22T04:13:36.728Z,48.97
2019-02-22T04:16:25.191Z,47.20
2019-02-22T04:19:12.784Z,47.17
2019-02-22T04:22:00.541Z,47.87
2019-02-22T04:24:48.913Z,47.07
2019-02-22T04:27:37.389Z,45.50
2019-02-22T04:30:24.980Z,48.17
2019-02-22T04:33:13.220Z,46.00
2019-02-22T04:36:01.500Z,45.47
2019-02-22T04:38:50.084Z,43.97
2019-02-22T04:41:38.047Z,47.30
2019-02-22T04:44:25.932Z,43.73
2019-02-22T04:47:14.427Z,46.60
2019-02-22T04:50:02.687Z,45.37
2019-02-22T04:52:50.597Z,44.47
2019-02-22T04:55:39.177Z,42.67
2019-02-22T04:58:27.223Z,44.60
2019-02-22T05:01:15.804Z,45.57
2019-02-22T05:04:03.661Z,44.17
2019-02-22T05:06:51.405Z,44.17
2019-02-22T05:09:39.700Z,43.93
2019-02-22T05:12:27.304Z,44.00
2019-02-22T05:15:15.660Z,47.90
2019-02-22T05:18:04.056Z,45.40
2019-02-22T05:20:52.248Z,43.47
2019-02-22T05:23:41.005Z,45.47
2019-02-22T05:26:29.118Z,44.27
2019-02-22T05:29:17.788Z,44.17
2019-02-22T05:32:05.975Z,47.90
2019-02-22T05:34:54.044Z,51.17
2019-02-22T05:37:41.859Z,49.10
2019-02-22T05:40:29.931Z,47.07
2019-02-22T05:43:17.914Z,46.30
2019-02-22T05:46:06.181Z,43.67
2019-02-22T05:48:54.498Z,45.60
2019-02-22T05:51:42.415Z,47.70
2019-02-22T05:54:29.956Z,47.67
2019-02-22T05:57:18.255Z,47.63
2019-02-22T06:00:07.217Z,46.10
2019-02-22T06:02:55.636Z,44.70
2019-02-22T06:05:43.595Z,44.17
2019-02-22T06:08:31.871Z,42.27
2019-02-22T06:11:19.721Z,44.60
2019-02-22T06:14:08.458Z,45.00
2019-02-22T06:16:56.576Z,42.37
2019-02-22T06:19:44.428Z,46.67
2019-02-22T06:22:32.580Z,47.17
2019-02-22T06:25:20.326Z,46.30
2019-02-22T06:28:08.440Z,46.97
2019-02-22T06:30:56.892Z,45.53
2019-02-22T06:33:45.163Z,46.33
2019-02-22T06:36:33.400Z,46.20
2019-02-22T06:39:21.678Z,47.70
2019-02-22T06:42:09.989Z,44.33
2019-02-22T06:44:58.232Z,45.27
2019-02-22T06:47:46.845Z,49.30
2019-02-22T06:50:34.744Z,44.20
2019-02-22T06:53:23.383Z,46.43
2019-02-22T06:56:10.936Z,43.40
2019-02-22T06:58:59.357Z,45.43
2019-02-22T07:01:50.018Z,43.07
2019-02-22T07:04:37.697Z,45.03
2019-02-22T07:07:25.292Z,49.70
2019-02-22T07:10:12.994Z,46.83
2019-02-22T07:13:04.696Z,45.87
2019-02-22T07:15:52.652Z,45.23
2019-02-22T07:18:40.916Z,43.63
2019-02-22T07:21:43.676Z,41.80
2019-02-22T07:24:18.549Z,43.67
2019-02-22T07:27:06.672Z,41.53
2019-02-22T07:29:55.208Z,43.90
2019-02-22T07:32:43.407Z,41.87
2019-02-22T07:35:32.084Z,42.10
2019-02-22T07:38:19.694Z,42.53
2019-02-22T07:41:07.232Z,44.43
2019-02-22T07:43:54.971Z,42.47
2019-02-22T07:46:43.333Z,39.57
2019-02-22T07:49:31.732Z,41.17
2019-02-22T07:52:19.566Z,41.17
2019-02-22T07:55:08.533Z,39.83
2019-02-22T07:57:57.108Z,38.20
2019-02-22T08:00:45.064Z,41.07
2019-02-22T08:03:33.576Z,37.97
2019-02-22T08:06:21.976Z,39.97
2019-02-22T08:09:10.198Z,37.90
2019-02-22T08:11:58.093Z,37.60
2019-02-22T08:14:46.083Z,37.43
2019-02-22T08:17:34.071Z,38.10
2019-02-22T08:20:22.483Z,37.00
2019-02-22T08:23:10.493Z,33.80
2019-02-22T08:25:59.387Z,34.07
2019-02-22T08:28:47.510Z,40.27
2019-02-22T08:31:36.273Z,35.90
2019-02-22T08:34:24.183Z,34.00
2019-02-22T08:37:12.267Z,32.57
2019-02-22T08:40:02.384Z,32.50
2019-02-22T08:42:49.971Z,33.83
2019-02-22T08:45:38.474Z,33.80
2019-02-22T08:48:26.026Z,36.70
2019-02-22T08:51:14.246Z,32.90
2019-02-22T08:54:02.485Z,32.33
2019-02-22T08:56:50.786Z,32.83
2019-02-22T08:59:38.787Z,33.27
2019-02-22T09:02:26.756Z,31.30
2019-02-22T09:05:15.463Z,30.50
2019-02-22T09:08:04.181Z,31.93
2019-02-22T09:11:00.096Z,31.20
2019-02-22T09:13:43.891Z,30.00
2019-02-22T09:16:32.244Z,29.57
2019-02-22T09:19:20.462Z,30.30
2019-02-22T09:22:08.828Z,29.83
2019-02-22T09:24:57.194Z,30.87
2019-02-22T09:27:44.751Z,29.90
2019-02-22T09:30:32.519Z,28.70
2019-02-22T09:33:19.964Z,30.43
2019-02-22T09:36:08.467Z,29.23
2019-02-22T09:38:56.103Z,29.20
2019-02-22T09:41:44.304Z,29.80
2019-02-22T09:44:32.247Z,26.73
2019-02-22T09:47:20.799Z,24.10
2019-02-22T09:50:09.792Z,24.80
2019-02-22T09:52:58.041Z,25.93
2019-02-22T09:55:46.246Z,23.90
2019-02-22T09:58:34.727Z,24.03
2019-02-22T10:01:23.265Z,26.17
2019-02-22T10:04:11.479Z,24.27
2019-02-22T10:06:59.459Z,24.13
2019-02-22T10:09:47.047Z,23.80
2019-02-22T10:12:35.086Z,22.20
2019-02-22T10:15:23.268Z,22.57
2019-02-22T10:18:11.846Z,22.00
2019-02-22T10:21:00.183Z,21.33
2019-02-22T10:23:48.510Z,19.93
2019-02-22T10:26:36.789Z,18.93
2019-02-22T10:29:24.287Z,19.70
2019-02-22T10:32:12.416Z,19.77
2019-02-22T10:35:00.527Z,17.20
2019-02-22T10:37:49.135Z,16.87
2019-02-22T10:40:39.214Z,17.07
2019-02-22T10:43:27.333Z,18.43
2019-02-22T10:46:14.942Z,19.77
2019-02-22T10:49:03.267Z,20.53
2019-02-22T10:51:51.835Z,21.33
2019-02-22T10:54:40.015Z,22.77
2019-02-22T10:57:28.002Z,21.27
2019-02-22T11:00:15.882Z,21.60
2019-02-22T11:03:04.374Z,20.40
2019-02-22T11:05:51.867Z,16.70
2019-02-22T11:08:39.976Z,18.67
2019-02-22T11:11:28.491Z,16.43
2019-02-22T11:14:16.563Z,16.00
2019-02-22T11:17:05.625Z,16.37
2019-02-22T11:19:53.659Z,16.40
2019-02-22T11:22:41.960Z,13.60
2019-02-22T11:25:30.155Z,14.57
2019-02-22T11:28:18.598Z,17.17
2019-02-22T11:31:06.650Z,16.40
2019-02-22T11:33:55.024Z,20.00
2019-02-22T11:36:43.169Z,18.37
2019-02-22T11:39:30.976Z,17.90
2019-02-22T11:42:19.160Z,18.97
2019-02-22T11:45:07.487Z,17.37
2019-02-22T11:47:56.145Z,17.37
2019-02-22T11:50:44.095Z,19.20
2019-02-22T11:53:32.515Z,17.10
2019-02-22T11:56:20.853Z,16.00
2019-02-22T11:59:08.650Z,19.63
2019-02-22T12:01:57.776Z,19.23
2019-02-22T12:04:46.260Z,21.23
2019-02-22T12:07:34.935Z,21.17
2019-02-22T12:10:23.559Z,21.03
2019-02-22T12:13:11.653Z,20.93
2019-02-22T12:15:59.933Z,20.00
2019-02-22T12:18:48.536Z,19.77
2019-02-22T12:21:37.312Z,17.70
2019-02-22T12:24:25.579Z,16.13
2019-02-22T12:27:14.271Z,18.00
2019-02-22T12:30:02.546Z,20.20
2019-02-22T12:32:51.055Z,22.00
2019-02-22T12:35:39.143Z,20.37
2019-02-22T12:38:28.416Z,20.30
2019-02-22T12:41:16.101Z,20.57
2019-02-22T12:44:03.639Z,19.50
2019-02-22T12:46:51.854Z,20.30
2019-02-22T12:49:40.396Z,20.17
2019-02-22T12:52:28.491Z,20.67
2019-02-22T12:55:16.176Z,18.43
2019-02-22T12:58:04.537Z,17.93
2019-02-22T13:00:52.652Z,17.53
2019-02-22T13:03:40.970Z,20.90
2019-02-22T13:06:29.175Z,20.73
2019-02-22T13:09:17.415Z,21.97
2019-02-22T13:12:13.584Z,21.87
2019-02-22T13:14:54.793Z,20.20
2019-02-22T13:17:43.041Z,18.57
2019-02-22T13:20:31.760Z,18.90
2019-02-22T13:23:20.082Z,20.10
2019-02-22T13:26:08.619Z,20.97
2019-02-22T13:28:56.891Z,20.90
2019-02-22T13:31:44.659Z,19.80
2019-02-22T13:34:32.822Z,22.00
2019-02-22T13:37:20.691Z,20.30
2019-02-22T13:40:10.342Z,21.73
2019-02-22T13:42:58.844Z,23.03
2019-02-22T13:45:47.464Z,22.13
2019-02-22T13:48:35.880Z,20.40
2019-02-22T13:51:24.236Z,19.37
2019-02-22T13:54:12.573Z,20.20
2019-02-22T13:57:00.119Z,18.80
2019-02-22T13:59:48.278Z,23.00
2019-02-22T14:02:36.923Z,21.17
2019-02-22T14:05:25.143Z,23.80
2019-02-22T14:08:13.405Z,23.13
2019-02-22T14:11:01.545Z,23.20
2019-02-22T14:13:49.043Z,21.87
2019-02-22T14:16:37.655Z,21.80
2019-02-22T14:19:25.946Z,22.23
2019-02-22T14:22:13.883Z,22.30
2019-02-22T14:25:01.731Z,23.10
2019-02-22T14:27:50.434Z,21.70
2019-02-22T14:30:38.738Z,22.17
2019-02-22T14:33:26.980Z,21.47
2019-02-22T14:36:14.919Z,21.30
2019-02-22T14:39:03.050Z,21.50
2019-02-22T14:41:50.591Z,24.57
2019-02-22T14:44:39.067Z,23.40
2019-02-22T14:47:27.090Z,24.83
2019-02-22T14:50:15.492Z,24.70
2019-02-22T14:53:03.874Z,24.13
2019-02-22T14:55:51.682Z,23.57
2019-02-22T14:58:39.639Z,25.10
2019-02-22T15:01:27.458Z,21.53
2019-02-22T15:04:16.537Z,22.63
2019-02-22T15:07:05.405Z,24.37
2019-02-22T15:09:53.591Z,24.50
2019-02-22T15:12:41.526Z,23.60
2019-02-22T15:15:59.923Z,23.90
2019-02-22T15:18:38.027Z,24.10
2019-02-22T15:21:26.307Z,22.70
2019-02-22T15:24:14.163Z,24.97
2019-02-22T15:27:01.698Z,24.50
2019-02-22T15:29:50.176Z,24.33
2019-02-22T15:32:38.509Z,23.10
2019-02-22T15:35:26.956Z,26.60
2019-02-22T15:38:14.948Z,26.70
2019-02-22T15:41:03.519Z,25.83
2019-02-22T15:43:51.794Z,28.20
2019-02-22T15:46:39.346Z,27.03
2019-02-22T15:49:27.700Z,28.37
2019-02-22T15:52:15.818Z,26.67
2019-02-22T15:55:04.708Z,28.80
2019-02-22T15:57:52.992Z,28.27
2019-02-22T16:00:41.503Z,30.47
2019-02-22T16:03:48.751Z,30.47
2019-02-22T16:06:36.499Z,29.07
2019-02-22T16:09:25.182Z,27.40
2019-02-22T16:12:13.110Z,27.30
2019-02-22T16:15:01.540Z,27.43
2019-02-22T16:17:49.144Z,25.70
2019-02-22T16:20:37.724Z,26.07
2019-02-22T16:23:25.595Z,24.90
2019-02-22T16:26:15.623Z,25.87
2019-02-22T16:29:03.626Z,25.67
2019-02-22T16:31:52.374Z,25.50
2019-02-22T16:34:43.631Z,25.10
2019-02-22T16:37:30.485Z,25.13
2019-02-22T16:40:18.780Z,26.30
2019-02-22T16:43:06.568Z,24.60
2019-02-22T16:45:54.940Z,25.00
2019-02-22T16:48:43.736Z,25.93
2019-02-22T16:51:31.536Z,26.63
2019-02-22T16:54:20.035Z,26.03
2019-02-22T16:57:07.754Z,25.37
2019-02-22T16:59:56.353Z,24.93
2019-02-22T17:02:44.341Z,26.90
2019-02-22T17:05:32.723Z,25.17
2019-02-22T17:08:21.540Z,23.93
2019-02-22T17:11:09.524Z,23.40
2019-02-22T17:13:57.996Z,22.70
2019-02-22T17:16:46.821Z,23.63
2019-02-22T17:19:35.159Z,25.57
2019-02-22T17:22:22.783Z,23.63
2019-02-22T17:25:12.493Z,24.07
2019-02-22T17:28:00.976Z,24.87
2019-02-22T17:30:49.641Z,24.17
2019-02-22T17:33:37.507Z,23.77
2019-02-22T17:36:27.229Z,24.33
2019-02-22T17:39:15.444Z,23.93
2019-02-22T17:42:03.127Z,26.20
2019-02-22T17:44:51.895Z,25.10
2019-02-22T17:47:40.495Z,26.07
2019-02-22T17:50:28.852Z,25.87
2019-02-22T17:53:17.185Z,26.20
2019-02-22T17:56:05.184Z,25.97
2019-02-22T17:58:52.720Z,24.10
2019-02-22T18:01:40.834Z,27.80
2019-02-22T18:04:29.219Z,23.80
2019-02-22T18:07:17.531Z,25.33
2019-02-22T18:10:05.612Z,26.20
2019-02-22T18:12:54.192Z,25.90
2019-02-22T18:15:42.418Z,26.37
2019-02-22T18:18:30.804Z,26.77
2019-02-22T18:21:19.083Z,28.37
2019-02-22T18:24:07.372Z,27.10
2019-02-22T18:26:55.983Z,26.77
2019-02-22T18:29:44.468Z,26.80
2019-02-22T18:32:32.801Z,28.10
2019-02-22T18:35:20.904Z,26.93
2019-02-22T18:38:08.679Z,27.87
2019-02-22T18:40:57.216Z,26.23
2019-02-22T18:43:45.902Z,26.40
2019-02-22T18:46:34.208Z,24.53
2019-02-22T18:49:22.263Z,22.73
2019-02-22T18:52:10.924Z,24.70
2019-02-22T18:54:59.337Z,23.03
2019-02-22T18:57:47.687Z,23.97
2019-02-22T19:00:36.330Z,22.97
2019-02-22T19:03:24.407Z,22.13
2019-02-22T19:06:11.969Z,22.90
2019-02-22T19:09:00.260Z,22.23
2019-02-22T19:11:49.195Z,21.17
2019-02-22T19:14:37.232Z,21.90
2019-02-22T19:17:30.326Z,19.67
2019-02-22T19:20:15.746Z,21.20
2019-02-22T19:23:04.181Z,20.20
2019-02-22T19:25:51.919Z,19.67
2019-02-22T19:28:40.220Z,19.40
2019-02-22T19:31:28.169Z,20.30
2019-02-22T19:34:16.369Z,19.80
2019-02-22T19:37:04.588Z,18.97
2019-02-22T19:39:52.912Z,20.43
2019-02-22T19:42:41.532Z,19.90
2019-02-22T19:45:30.008Z,19.93
2019-02-22T19:48:18.187Z,19.67
2019-02-22T19:51:06.023Z,18.03
2019-02-22T19:53:54.729Z,19.60
2019-02-22T19:56:43.237Z,18.47
2019-02-22T19:59:32.515Z,17.33
2019-02-22T20:02:21.052Z,18.57
2019-02-22T20:05:10.602Z,16.97
2019-02-22T20:07:58.943Z,16.00
2019-02-22T20:10:47.303Z,17.27
2019-02-22T20:13:35.760Z,15.63
2019-02-22T20:16:24.596Z,15.57
2019-02-22T20:19:13.318Z,16.70
2019-02-22T20:22:01.627Z,15.87
2019-02-22T20:24:49.472Z,17.20
2019-02-22T20:27:37.381Z,17.43
2019-02-22T20:30:25.379Z,17.93
2019-02-22T20:33:14.064Z,18.87
2019-02-22T20:36:01.825Z,16.37
2019-02-22T20:38:50.172Z,17.57
2019-02-22T20:41:38.607Z,18.50
2019-02-22T20:44:27.055Z,18.93
2019-02-22T20:47:14.932Z,17.10
2019-02-22T20:50:03.349Z,19.60
2019-02-22T20:52:51.833Z,18.63
2019-02-22T20:55:39.958Z,19.70
2019-02-22T20:58:28.208Z,19.60
2019-02-22T21:01:16.484Z,18.90
2019-02-22T21:04:04.733Z,22.30
2019-02-22T21:06:52.558Z,20.20
2019-02-22T21:09:40.481Z,18.97
2019-02-22T21:12:28.623Z,19.43
2019-02-22T21:15:16.975Z,22.20
2019-02-22T21:18:15.600Z,22.10
2019-02-22T21:20:54.174Z,21.77
2019-02-22T21:23:42.662Z,21.60
2019-02-22T21:26:31.266Z,21.57
2019-02-22T21:29:19.487Z,22.33
2019-02-22T21:32:07.678Z,22.67
2019-02-22T21:34:55.990Z,25.00
2019-02-22T21:37:44.455Z,21.60
2019-02-22T21:40:32.495Z,20.83
2019-02-22T21:43:21.031Z,22.17
2019-02-22T21:46:09.313Z,23.27
2019-02-22T21:48:57.955Z,22.90
2019-02-22T21:51:46.059Z,25.27
2019-02-22T21:54:33.903Z,25.53
2019-02-22T21:57:22.130Z,25.30
2019-02-22T22:00:13.425Z,25.07
2019-02-22T22:03:01.782Z,24.23
2019-02-22T22:05:50.762Z,23.57
2019-02-22T22:08:38.679Z,25.60
2019-02-22T22:11:26.651Z,23.23
2019-02-22T22:14:15.011Z,23.90
2019-02-22T22:17:03.270Z,24.13
2019-02-22T22:19:51.891Z,21.90
2019-02-22T22:22:40.460Z,23.27
2019-02-22T22:25:28.096Z,21.00
2019-02-22T22:28:16.490Z,21.50
2019-02-22T22:31:04.628Z,22.47
2019-02-22T22:33:52.546Z,23.70
2019-02-22T22:36:41.004Z,24.00
2019-02-22T22:39:29.216Z,25.17
2019-02-22T22:42:16.991Z,25.13
2019-02-22T22:45:06.102Z,24.57
2019-02-22T22:47:54.634Z,23.30
2019-02-22T22:50:42.282Z,23.13
2019-02-22T22:53:30.911Z,21.70
2019-02-22T22:56:18.732Z,23.90
2019-02-22T22:59:06.975Z,25.63
2019-02-22T23:01:56.395Z,23.00
2019-02-22T23:04:44.106Z,24.10
2019-02-22T23:07:32.023Z,23.60
2019-02-22T23:10:20.310Z,24.50
2019-02-22T23:13:08.987Z,23.97
2019-02-22T23:15:57.341Z,21.23
2019-02-22T23:18:45.987Z,23.17
2019-02-22T23:21:34.770Z,23.80
2019-02-22T23:24:22.801Z,24.60
2019-02-22T23:27:11.346Z,23.73
2019-02-22T23:29:59.561Z,23.50
2019-02-22T23:32:47.716Z,22.67
2019-02-22T23:35:35.923Z,24.07
2019-02-22T23:38:24.176Z,22.73
2019-02-22T23:41:12.544Z,24.50
2019-02-22T23:44:01.423Z,22.50
2019-02-22T23:46:49.270Z,21.93
2019-02-22T23:49:37.694Z,22.50
2019-02-22T23:52:26.182Z,24.13
2019-02-22T23:55:15.027Z,22.40
2019-02-22T23:58:03.704Z,22.37
